sensor_id;sensor_type;location;lat;lon;timestamp;pressure;altitude;pressure_sealevel;temperature;humidity
59873;BME280;50750;51.636;4.948;2023-02-28T00:01:21;103277.90;;;9.70;57.06
59873;BME280;50750;51.636;4.948;2023-02-28T00:03:48;103278.77;;;9.70;57.07
59873;BME280;50750;51.636;4.948;2023-02-28T00:06:14;103275.25;;;9.69;57.04
59873;BME280;50750;51.636;4.948;2023-02-28T00:08:41;103277.70;;;9.69;57.01
59873;BME280;50750;51.636;4.948;2023-02-28T00:11:11;103275.61;;;9.70;56.98
59873;BME280;50750;51.636;4.948;2023-02-28T00:13:41;103275.77;;;9.69;57.02
59873;BME280;50750;51.636;4.948;2023-02-28T00:16:11;103273.49;;;9.68;57.03
59873;BME280;50750;51.636;4.948;2023-02-28T00:18:39;103271.92;;;9.68;57.12
59873;BME280;50750;51.636;4.948;2023-02-28T00:21:06;103275.59;;;9.68;57.08
59873;BME280;50750;51.636;4.948;2023-02-28T00:23:33;103274.53;;;9.67;57.10
59873;BME280;50750;51.636;4.948;2023-02-28T00:26:00;103271.55;;;9.67;57.07
59873;BME280;50750;51.636;4.948;2023-02-28T00:28:27;103272.59;;;9.67;57.10
59873;BME280;50750;51.636;4.948;2023-02-28T00:30:53;103273.30;;;9.67;57.09
59873;BME280;50750;51.636;4.948;2023-02-28T00:33:20;103273.30;;;9.67;57.11
59873;BME280;50750;51.636;4.948;2023-02-28T00:35:47;103272.07;;;9.66;57.07
59873;BME280;50750;51.636;4.948;2023-02-28T00:38:15;103269.27;;;9.66;57.03
59873;BME280;50750;51.636;4.948;2023-02-28T00:40:43;103270.14;;;9.66;57.00
59873;BME280;50750;51.636;4.948;2023-02-28T00:43:09;103264.88;;;9.65;57.13
59873;BME280;50750;51.636;4.948;2023-02-28T00:45:36;103263.14;;;9.65;57.09
59873;BME280;50750;51.636;4.948;2023-02-28T00:48:02;103262.44;;;9.65;57.07
59873;BME280;50750;51.636;4.948;2023-02-28T00:50:30;103269.96;;;9.65;56.98
59873;BME280;50750;51.636;4.948;2023-02-28T00:52:57;103271.54;;;9.65;57.10
59873;BME280;50750;51.636;4.948;2023-02-28T00:55:23;103262.78;;;9.65;57.04
59873;BME280;50750;51.636;4.948;2023-02-28T00:57:50;103259.46;;;9.65;57.07
59873;BME280;50750;51.636;4.948;2023-02-28T01:00:16;103259.62;;;9.64;57.11
59873;BME280;50750;51.636;4.948;2023-02-28T01:02:43;103256.82;;;9.64;57.07
59873;BME280;50750;51.636;4.948;2023-02-28T01:05:10;103259.45;;;9.64;57.04
59873;BME280;50750;51.636;4.948;2023-02-28T01:07:36;103265.20;;;9.64;57.12
59873;BME280;50750;51.636;4.948;2023-02-28T01:10:03;103265.73;;;9.63;57.07
59873;BME280;50750;51.636;4.948;2023-02-28T01:12:30;103268.36;;;9.64;57.04
59873;BME280;50750;51.636;4.948;2023-02-28T01:14:57;103271.16;;;9.64;57.16
59873;BME280;50750;51.636;4.948;2023-02-28T01:17:24;103273.95;;;9.64;57.05
59873;BME280;50750;51.636;4.948;2023-02-28T01:19:53;103276.93;;;9.63;57.09
59873;BME280;50750;51.636;4.948;2023-02-28T01:22:20;103274.66;;;9.63;57.13
59873;BME280;50750;51.636;4.948;2023-02-28T01:24:47;103274.66;;;9.63;57.14
59873;BME280;50750;51.636;4.948;2023-02-28T01:27:14;103280.08;;;9.63;57.10
59873;BME280;50750;51.636;4.948;2023-02-28T01:29:40;103272.03;;;9.62;57.19
59873;BME280;50750;51.636;4.948;2023-02-28T01:32:07;103269.05;;;9.62;57.24
59873;BME280;50750;51.636;4.948;2023-02-28T01:34:34;103268.01;;;9.62;57.13
59873;BME280;50750;51.636;4.948;2023-02-28T01:37:00;103270.27;;;9.62;57.19
59873;BME280;50750;51.636;4.948;2023-02-28T01:39:27;103272.90;;;9.62;57.18
59873;BME280;50750;51.636;4.948;2023-02-28T01:41:54;103265.71;;;9.61;57.16
59873;BME280;50750;51.636;4.948;2023-02-28T01:47:43;103272.52;;;9.61;57.19
59873;BME280;50750;51.636;4.948;2023-02-28T01:50:17;103274.80;;;9.60;57.23
59873;BME280;50750;51.636;4.948;2023-02-28T01:52:46;103272.88;;;9.60;57.21
59873;BME280;50750;51.636;4.948;2023-02-28T01:55:15;103275.67;;;9.60;57.21
59873;BME280;50750;51.636;4.948;2023-02-28T01:57:48;103276.02;;;9.60;57.18
59873;BME280;50750;51.636;4.948;2023-02-28T02:00:17;103274.62;;;9.60;57.27
59873;BME280;50750;51.636;4.948;2023-02-28T02:02:47;103272.69;;;9.59;57.31
59873;BME280;50750;51.636;4.948;2023-02-28T02:05:15;103274.10;;;9.60;57.28
59873;BME280;50750;51.636;4.948;2023-02-28T02:07:44;103274.10;;;9.60;57.27
59873;BME280;50750;51.636;4.948;2023-02-28T02:18:30;103257.48;;;9.59;57.30
59873;BME280;50750;51.636;4.948;2023-02-28T02:26:58;103256.74;;;9.59;57.28
59873;BME280;50750;51.636;4.948;2023-02-28T02:30:48;103255.01;;;9.59;57.20
59873;BME280;50750;51.636;4.948;2023-02-28T02:35:29;103252.89;;;9.58;57.47
59873;BME280;50750;51.636;4.948;2023-02-28T02:43:46;103248.87;;;9.58;57.34
59873;BME280;50750;51.636;4.948;2023-02-28T02:46:20;103244.48;;;9.57;57.38
59873;BME280;50750;51.636;4.948;2023-02-28T02:48:49;103243.09;;;9.57;57.39
59873;BME280;50750;51.636;4.948;2023-02-28T02:51:19;103244.84;;;9.57;57.42
59873;BME280;50750;51.636;4.948;2023-02-28T02:53:55;103247.46;;;9.57;57.41
59873;BME280;50750;51.636;4.948;2023-02-28T02:56:27;103243.61;;;9.57;57.46
59873;BME280;50750;51.636;4.948;2023-02-28T02:58:59;103243.62;;;9.57;57.38
59873;BME280;50750;51.636;4.948;2023-02-28T03:01:28;103243.79;;;9.57;57.45
59873;BME280;50750;51.636;4.948;2023-02-28T03:03:59;103244.14;;;9.57;57.44
59873;BME280;50750;51.636;4.948;2023-02-28T03:06:27;103246.41;;;9.57;57.41
59873;BME280;50750;51.636;4.948;2023-02-28T03:08:53;103249.56;;;9.57;57.44
59873;BME280;50750;51.636;4.948;2023-02-28T03:11:20;103250.09;;;9.57;57.50
59873;BME280;50750;51.636;4.948;2023-02-28T03:21:49;103246.94;;;9.57;57.57
59873;BME280;50750;51.636;4.948;2023-02-28T03:27:12;103246.92;;;9.56;57.56
59873;BME280;50750;51.636;4.948;2023-02-28T03:29:49;103242.02;;;9.56;57.49
59873;BME280;50750;51.636;4.948;2023-02-28T03:32:25;103247.80;;;9.56;57.58
59873;BME280;50750;51.636;4.948;2023-02-28T03:35:06;103250.59;;;9.56;57.52
59873;BME280;50750;51.636;4.948;2023-02-28T03:37:37;103252.34;;;9.56;57.61
59873;BME280;50750;51.636;4.948;2023-02-28T03:40:15;103250.59;;;9.56;57.61
59873;BME280;50750;51.636;4.948;2023-02-28T03:42:46;103246.21;;;9.55;57.60
59873;BME280;50750;51.636;4.948;2023-02-28T03:45:25;103242.54;;;9.55;57.64
59873;BME280;50750;51.636;4.948;2023-02-28T03:50:29;103254.96;;;9.55;57.68
59873;BME280;50750;51.636;4.948;2023-02-28T03:53:07;103253.91;;;9.55;57.63
59873;BME280;50750;51.636;4.948;2023-02-28T03:55:40;103259.69;;;9.55;57.71
59873;BME280;50750;51.636;4.948;2023-02-28T03:58:30;103254.27;;;9.55;57.63
59873;BME280;50750;51.636;4.948;2023-02-28T04:01:08;103260.21;;;9.55;57.62
59873;BME280;50750;51.636;4.948;2023-02-28T04:03:37;103257.77;;;9.55;57.70
59873;BME280;50750;51.636;4.948;2023-02-28T04:06:05;103253.04;;;9.55;57.63
59873;BME280;50750;51.636;4.948;2023-02-28T04:08:33;103251.63;;;9.55;57.66
59873;BME280;50750;51.636;4.948;2023-02-28T04:13:45;103256.35;;;9.55;57.74
59873;BME280;50750;51.636;4.948;2023-02-28T04:16:11;103254.78;;;9.55;57.68
59873;BME280;50750;51.636;4.948;2023-02-28T04:18:39;103252.16;;;9.54;57.65
59873;BME280;50750;51.636;4.948;2023-02-28T04:21:06;103251.27;;;9.54;57.71
59873;BME280;50750;51.636;4.948;2023-02-28T04:23:33;103254.42;;;9.54;57.73
59873;BME280;50750;51.636;4.948;2023-02-28T04:25:59;103251.97;;;9.54;57.68
59873;BME280;50750;51.636;4.948;2023-02-28T04:28:26;103249.86;;;9.53;57.75
59873;BME280;50750;51.636;4.948;2023-02-28T04:30:57;103254.58;;;9.53;57.81
59873;BME280;50750;51.636;4.948;2023-02-28T04:33:24;103254.93;;;9.53;57.73
59873;BME280;50750;51.636;4.948;2023-02-28T04:36:02;103257.73;;;9.53;57.78
59873;BME280;50750;51.636;4.948;2023-02-28T04:38:32;103260.36;;;9.53;57.82
59873;BME280;50750;51.636;4.948;2023-02-28T04:40:59;103261.05;;;9.53;57.75
59873;BME280;50750;51.636;4.948;2023-02-28T04:43:27;103263.85;;;9.53;57.74
59873;BME280;50750;51.636;4.948;2023-02-28T04:45:55;103269.27;;;9.53;57.82
59873;BME280;50750;51.636;4.948;2023-02-28T04:48:28;103276.09;;;9.53;57.82
59873;BME280;50750;51.636;4.948;2023-02-28T04:50:55;103275.04;;;9.52;57.78
59873;BME280;50750;51.636;4.948;2023-02-28T04:53:27;103280.11;;;9.52;57.90
59873;BME280;50750;51.636;4.948;2023-02-28T04:55:54;103279.23;;;9.51;57.85
59873;BME280;50750;51.636;4.948;2023-02-28T04:58:21;103277.84;;;9.52;57.86
59873;BME280;50750;51.636;4.948;2023-02-28T05:00:52;103285.19;;;9.52;57.91
59873;BME280;50750;51.636;4.948;2023-02-28T05:03:20;103284.66;;;9.52;57.79
59873;BME280;50750;51.636;4.948;2023-02-28T05:05:48;103285.00;;;9.51;57.86
59873;BME280;50750;51.636;4.948;2023-02-28T05:08:14;103285.02;;;9.51;57.83
59873;BME280;50750;51.636;4.948;2023-02-28T05:10:41;103287.81;;;9.51;57.91
59873;BME280;50750;51.636;4.948;2023-02-28T05:13:13;103290.27;;;9.51;57.92
59873;BME280;50750;51.636;4.948;2023-02-28T05:15:39;103297.07;;;9.51;57.97
59873;BME280;50750;51.636;4.948;2023-02-28T05:18:08;103298.64;;;9.51;57.92
59873;BME280;50750;51.636;4.948;2023-02-28T05:20:34;103282.72;;;9.50;57.91
59873;BME280;50750;51.636;4.948;2023-02-28T05:23:01;103296.36;;;9.50;57.97
59873;BME280;50750;51.636;4.948;2023-02-28T05:25:28;103294.79;;;9.50;57.88
59873;BME280;50750;51.636;4.948;2023-02-28T05:27:54;103292.15;;;9.50;57.87
59873;BME280;50750;51.636;4.948;2023-02-28T05:30:21;103291.98;;;9.50;57.86
59873;BME280;50750;51.636;4.948;2023-02-28T05:32:50;103292.14;;;9.50;57.94
59873;BME280;50750;51.636;4.948;2023-02-28T05:35:17;103298.10;;;9.50;57.99
59873;BME280;50750;51.636;4.948;2023-02-28T05:37:44;103290.22;;;9.50;58.01
59873;BME280;50750;51.636;4.948;2023-02-28T05:40:11;103293.02;;;9.50;57.92
59873;BME280;50750;51.636;4.948;2023-02-28T05:42:38;103297.39;;;9.50;57.96
59873;BME280;50750;51.636;4.948;2023-02-28T05:45:05;103298.09;;;9.49;57.99
59873;BME280;50750;51.636;4.948;2023-02-28T05:47:33;103300.20;;;9.49;58.10
59873;BME280;50750;51.636;4.948;2023-02-28T05:50:01;103304.57;;;9.49;58.02
59873;BME280;50750;51.636;4.948;2023-02-28T05:52:28;103300.02;;;9.49;58.07
59873;BME280;50750;51.636;4.948;2023-02-28T05:54:56;103303.17;;;9.49;57.94
59873;BME280;50750;51.636;4.948;2023-02-28T05:57:23;103302.64;;;9.49;57.98
59873;BME280;50750;51.636;4.948;2023-02-28T05:59:50;103292.15;;;9.49;58.04
59873;BME280;50750;51.636;4.948;2023-02-28T06:02:17;103287.24;;;9.49;58.02
59873;BME280;50750;51.636;4.948;2023-02-28T06:04:44;103284.98;;;9.49;58.04
59873;BME280;50750;51.636;4.948;2023-02-28T06:07:11;103287.95;;;9.49;58.05
59873;BME280;50750;51.636;4.948;2023-02-28T06:09:38;103292.84;;;9.50;58.02
59873;BME280;50750;51.636;4.948;2023-02-28T06:12:05;103290.22;;;9.49;58.04
59873;BME280;50750;51.636;4.948;2023-02-28T06:14:34;103289.70;;;9.49;58.01
59873;BME280;50750;51.636;4.948;2023-02-28T06:17:00;103289.87;;;9.49;58.03
59873;BME280;50750;51.636;4.948;2023-02-28T06:19:27;103289.01;;;9.49;58.07
59873;BME280;50750;51.636;4.948;2023-02-28T06:21:56;103283.77;;;9.49;57.99
59873;BME280;50750;51.636;4.948;2023-02-28T06:24:24;103283.77;;;9.49;58.03
59873;BME280;50750;51.636;4.948;2023-02-28T06:26:51;103275.54;;;9.49;58.07
59873;BME280;50750;51.636;4.948;2023-02-28T06:29:17;103283.23;;;9.49;57.90
59873;BME280;50750;51.636;4.948;2023-02-28T06:31:45;103282.89;;;9.49;57.99
59873;BME280;50750;51.636;4.948;2023-02-28T06:34:13;103283.23;;;9.49;58.00
59873;BME280;50750;51.636;4.948;2023-02-28T06:36:41;103283.41;;;9.49;58.15
59873;BME280;50750;51.636;4.948;2023-02-28T06:39:08;103285.33;;;9.49;58.06
59873;BME280;50750;51.636;4.948;2023-02-28T06:41:35;103293.02;;;9.49;57.96
59873;BME280;50750;51.636;4.948;2023-02-28T06:44:05;103289.34;;;9.49;58.05
59873;BME280;50750;51.636;4.948;2023-02-28T06:46:39;103282.70;;;9.49;58.07
59873;BME280;50750;51.636;4.948;2023-02-28T06:49:07;103289.69;;;9.48;58.04
59873;BME280;50750;51.636;4.948;2023-02-28T06:51:39;103289.52;;;9.49;58.05
59873;BME280;50750;51.636;4.948;2023-02-28T06:54:06;103284.79;;;9.48;57.98
59873;BME280;50750;51.636;4.948;2023-02-28T06:56:35;103283.02;;;9.48;58.10
59873;BME280;50750;51.636;4.948;2023-02-28T06:59:02;103282.84;;;9.47;58.13
59873;BME280;50750;51.636;4.948;2023-02-28T07:01:30;103289.48;;;9.47;58.20
59873;BME280;50750;51.636;4.948;2023-02-28T07:03:59;103295.61;;;9.47;58.02
59873;BME280;50750;51.636;4.948;2023-02-28T07:06:27;103296.84;;;9.47;58.09
59873;BME280;50750;51.636;4.948;2023-02-28T07:08:54;103304.89;;;9.47;58.09
59873;BME280;50750;51.636;4.948;2023-02-28T07:11:24;103301.39;;;9.47;58.07
59873;BME280;50750;51.636;4.948;2023-02-28T07:13:55;103301.73;;;9.47;58.04
59873;BME280;50750;51.636;4.948;2023-02-28T07:16:24;103310.83;;;9.47;58.14
59873;BME280;50750;51.636;4.948;2023-02-28T07:18:54;103310.65;;;9.47;58.05
59873;BME280;50750;51.636;4.948;2023-02-28T07:21:21;103309.25;;;9.47;58.13
59873;BME280;50750;51.636;4.948;2023-02-28T07:23:48;103306.99;;;9.47;57.98
59873;BME280;50750;51.636;4.948;2023-02-28T07:26:16;103312.23;;;9.47;58.09
59873;BME280;50750;51.636;4.948;2023-02-28T07:28:46;103308.02;;;9.47;58.05
59873;BME280;50750;51.636;4.948;2023-02-28T07:31:14;103313.08;;;9.46;56.70
59873;BME280;50750;51.636;4.948;2023-02-28T07:33:41;103310.79;;;9.43;56.73
59873;BME280;50750;51.636;4.948;2023-02-28T07:36:10;103319.70;;;9.43;57.00
59873;BME280;50750;51.636;4.948;2023-02-28T07:38:42;103321.80;;;9.43;57.02
59873;BME280;50750;51.636;4.948;2023-02-28T07:41:10;103326.67;;;9.42;57.21
59873;BME280;50750;51.636;4.948;2023-02-28T07:43:37;103321.42;;;9.42;57.24
59873;BME280;50750;51.636;4.948;2023-02-28T07:46:04;103320.39;;;9.43;57.30
59873;BME280;50750;51.636;4.948;2023-02-28T07:48:31;103326.51;;;9.43;57.43
59873;BME280;50750;51.636;4.948;2023-02-28T07:50:59;103321.60;;;9.43;57.50
59873;BME280;50750;51.636;4.948;2023-02-28T07:53:27;103327.03;;;9.43;57.59
59873;BME280;50750;51.636;4.948;2023-02-28T07:55:56;103318.81;;;9.43;57.54
59873;BME280;50750;51.636;4.948;2023-02-28T07:58:23;103319.67;;;9.42;57.57
59873;BME280;50750;51.636;4.948;2023-02-28T08:00:51;103321.95;;;9.43;57.62
59873;BME280;50750;51.636;4.948;2023-02-28T08:03:18;103322.13;;;9.43;57.73
59873;BME280;50750;51.636;4.948;2023-02-28T08:05:45;103325.80;;;9.43;57.73
59873;BME280;50750;51.636;4.948;2023-02-28T08:08:12;103331.23;;;9.43;57.81
59873;BME280;50750;51.636;4.948;2023-02-28T08:10:38;103338.58;;;9.43;57.86
59873;BME280;50750;51.636;4.948;2023-02-28T08:13:05;103335.08;;;9.42;57.87
59873;BME280;50750;51.636;4.948;2023-02-28T08:15:32;103334.38;;;9.43;57.83
59873;BME280;50750;51.636;4.948;2023-02-28T08:17:59;103334.54;;;9.42;57.84
59873;BME280;50750;51.636;4.948;2023-02-28T08:20:26;103332.98;;;9.43;57.90
59873;BME280;50750;51.636;4.948;2023-02-28T08:22:53;103334.36;;;9.42;57.84
59873;BME280;50750;51.636;4.948;2023-02-28T08:25:19;103338.92;;;9.42;57.92
59873;BME280;50750;51.636;4.948;2023-02-28T08:27:46;103340.13;;;9.42;57.84
59873;BME280;50750;51.636;4.948;2023-02-28T08:30:14;103341.00;;;9.42;57.98
59873;BME280;50750;51.636;4.948;2023-02-28T08:32:40;103338.92;;;9.42;57.95
59873;BME280;50750;51.636;4.948;2023-02-28T08:35:07;103330.17;;;9.42;57.98
59873;BME280;50750;51.636;4.948;2023-02-28T08:37:35;103327.55;;;9.42;57.90
59873;BME280;50750;51.636;4.948;2023-02-28T08:40:03;103324.74;;;9.42;57.98
59873;BME280;50750;51.636;4.948;2023-02-28T08:42:31;103332.80;;;9.42;57.96
59873;BME280;50750;51.636;4.948;2023-02-28T08:44:58;103334.89;;;9.42;57.97
59873;BME280;50750;51.636;4.948;2023-02-28T08:47:25;103329.30;;;9.42;58.03
59873;BME280;50750;51.636;4.948;2023-02-28T08:49:51;103329.82;;;9.42;58.01
59873;BME280;50750;51.636;4.948;2023-02-28T08:52:18;103326.67;;;9.42;57.96
59873;BME280;50750;51.636;4.948;2023-02-28T08:54:44;103321.24;;;9.42;57.86
59873;BME280;50750;51.636;4.948;2023-02-28T08:57:11;103313.38;;;9.43;57.86
59873;BME280;50750;51.636;4.948;2023-02-28T08:59:37;103308.32;;;9.42;57.93
59873;BME280;50750;51.636;4.948;2023-02-28T09:02:04;103314.63;;;9.43;57.92
59873;BME280;50750;51.636;4.948;2023-02-28T09:04:30;103323.01;;;9.43;57.84
59873;BME280;50750;51.636;4.948;2023-02-28T09:06:57;103329.84;;;9.43;57.84
59873;BME280;50750;51.636;4.948;2023-02-28T09:09:23;103332.99;;;9.44;57.85
59873;BME280;50750;51.636;4.948;2023-02-28T09:11:50;103333.87;;;9.43;57.91
59873;BME280;50750;51.636;4.948;2023-02-28T09:14:16;103335.45;;;9.43;57.84
59873;BME280;50750;51.636;4.948;2023-02-28T09:16:43;103336.85;;;9.44;57.69
59873;BME280;50750;51.636;4.948;2023-02-28T09:19:11;103328.10;;;9.44;57.82
59873;BME280;50750;51.636;4.948;2023-02-28T09:21:39;103325.30;;;9.44;57.82
59873;BME280;50750;51.636;4.948;2023-02-28T09:24:06;103328.45;;;9.44;57.86
59873;BME280;50750;51.636;4.948;2023-02-28T09:26:33;103337.90;;;9.44;57.79
59873;BME280;50750;51.636;4.948;2023-02-28T09:29:00;103335.98;;;9.44;57.66
59873;BME280;50750;51.636;4.948;2023-02-28T09:31:28;103326.35;;;9.44;57.63
59873;BME280;50750;51.636;4.948;2023-02-28T09:33:56;103337.38;;;9.44;57.66
59873;BME280;50750;51.636;4.948;2023-02-28T09:36:24;103342.63;;;9.44;57.63
59873;BME280;50750;51.636;4.948;2023-02-28T09:38:51;103341.23;;;9.44;57.72
59873;BME280;50750;51.636;4.948;2023-02-28T09:41:21;103336.33;;;9.44;57.66
59873;BME280;50750;51.636;4.948;2023-02-28T09:43:56;103333.70;;;9.44;57.66
59873;BME280;50750;51.636;4.948;2023-02-28T09:46:29;103330.38;;;9.44;57.74
59873;BME280;50750;51.636;4.948;2023-02-28T09:49:04;103332.48;;;9.44;57.77
59873;BME280;50750;51.636;4.948;2023-02-28T09:51:40;103330.55;;;9.45;57.65
59873;BME280;50750;51.636;4.948;2023-02-28T09:54:15;103334.40;;;9.45;57.74
59873;BME280;50750;51.636;4.948;2023-02-28T09:56:50;103333.36;;;9.45;57.66
59873;BME280;50750;51.636;4.948;2023-02-28T10:12:55;103328.50;;;9.47;57.47
59873;BME280;50750;51.636;4.948;2023-02-28T10:15:24;103323.27;;;9.48;57.35
59873;BME280;50750;51.636;4.948;2023-02-28T10:17:54;103321.34;;;9.47;57.45
59873;BME280;50750;51.636;4.948;2023-02-28T10:20:25;103321.15;;;9.47;57.37
59873;BME280;50750;51.636;4.948;2023-02-28T10:23:22;103317.48;;;9.47;57.47
59873;BME280;50750;51.636;4.948;2023-02-28T10:25:57;103319.94;;;9.47;57.34
59873;BME280;50750;51.636;4.948;2023-02-28T10:28:26;103320.98;;;9.47;57.25
59873;BME280;50750;51.636;4.948;2023-02-28T10:30:54;103314.50;;;9.48;57.31
59873;BME280;50750;51.636;4.948;2023-02-28T10:35:49;103308.57;;;9.48;57.03
59873;BME280;50750;51.636;4.948;2023-02-28T10:38:23;103307.16;;;9.48;56.89
59873;BME280;50750;51.636;4.948;2023-02-28T10:40:51;103308.22;;;9.48;56.89
59873;BME280;50750;51.636;4.948;2023-02-28T10:43:19;103305.96;;;9.48;56.89
59873;BME280;50750;51.636;4.948;2023-02-28T10:45:59;103302.12;;;9.49;56.89
59873;BME280;50750;51.636;4.948;2023-02-28T10:48:39;103303.17;;;9.49;56.66
59873;BME280;50750;51.636;4.948;2023-02-28T10:51:14;103306.49;;;9.50;56.64
59873;BME280;50750;51.636;4.948;2023-02-28T10:53:52;103304.23;;;9.51;56.71
59873;BME280;50750;51.636;4.948;2023-02-28T10:56:22;103302.33;;;9.51;56.95
59873;BME280;50750;51.636;4.948;2023-02-28T10:59:00;103297.42;;;9.52;57.03
59873;BME280;50750;51.636;4.948;2023-02-28T11:04:02;103293.76;;;9.53;57.23
59873;BME280;50750;51.636;4.948;2023-02-28T11:06:31;103288.88;;;9.54;57.01
59873;BME280;50750;51.636;4.948;2023-02-28T11:08:59;103289.95;;;9.55;57.24
59873;BME280;50750;51.636;4.948;2023-02-28T11:11:30;103291.70;;;9.55;57.31
59873;BME280;50750;51.636;4.948;2023-02-28T11:14:03;103284.37;;;9.57;57.17
59873;BME280;50750;51.636;4.948;2023-02-28T11:16:36;103278.96;;;9.57;57.51
59873;BME280;50750;51.636;4.948;2023-02-28T11:19:06;103277.91;;;9.58;57.47
59873;BME280;50750;51.636;4.948;2023-02-28T11:21:52;103276.19;;;9.59;57.43
59873;BME280;50750;51.636;4.948;2023-02-28T11:24:28;103273.23;;;9.60;57.40
59873;BME280;50750;51.636;4.948;2023-02-28T11:26:56;103277.77;;;9.61;57.38
59873;BME280;50750;51.636;4.948;2023-02-28T11:29:24;103279.20;;;9.62;57.41
59873;BME280;50750;51.636;4.948;2023-02-28T11:34:40;103273.08;;;9.64;57.36
59873;BME280;50750;51.636;4.948;2023-02-28T11:37:18;103268.55;;;9.65;57.38
59873;BME280;50750;51.636;4.948;2023-02-28T11:39:46;103269.79;;;9.65;57.47
59873;BME280;50750;51.636;4.948;2023-02-28T11:45:16;103269.44;;;9.66;57.38
59873;BME280;50750;51.636;4.948;2023-02-28T11:48:06;103264.71;;;9.66;57.36
59873;BME280;50750;51.636;4.948;2023-02-28T11:56:16;103257.92;;;9.68;57.46
59873;BME280;50750;51.636;4.948;2023-02-28T12:06:49;103251.98;;;9.69;57.47
59873;BME280;50750;51.636;4.948;2023-02-28T12:20:34;103236.13;;;9.74;57.45
59873;BME280;50750;51.636;4.948;2023-02-28T12:28:17;103232.65;;;9.76;57.52
59873;BME280;50750;51.636;4.948;2023-02-28T12:30:55;103231.95;;;9.77;57.59
59873;BME280;50750;51.636;4.948;2023-02-28T12:33:29;103227.23;;;9.78;57.56
59873;BME280;50750;51.636;4.948;2023-02-28T12:36:05;103233.20;;;9.78;57.63
59873;BME280;50750;51.636;4.948;2023-02-28T12:38:39;103225.15;;;9.79;57.58
59873;BME280;50750;51.636;4.948;2023-02-28T12:41:39;103224.80;;;9.80;57.49
59873;BME280;50750;51.636;4.948;2023-02-28T12:44:40;103219.56;;;9.80;57.48
59873;BME280;50750;51.636;4.948;2023-02-28T12:47:09;103219.92;;;9.81;57.44
59873;BME280;50750;51.636;4.948;2023-02-28T12:49:46;103213.27;;;9.82;57.46
59873;BME280;50750;51.636;4.948;2023-02-28T12:52:22;103216.79;;;9.83;57.33
59873;BME280;50750;51.636;4.948;2023-02-28T12:55:03;103218.39;;;9.84;57.35
59873;BME280;50750;51.636;4.948;2023-02-28T13:00:04;103214.01;;;9.85;57.35
59873;BME280;50750;51.636;4.948;2023-02-28T13:10:47;103194.44;;;9.87;57.31
59873;BME280;50750;51.636;4.948;2023-02-28T13:13:19;103195.49;;;9.88;57.24
59873;BME280;50750;51.636;4.948;2023-02-28T13:16:08;103189.39;;;9.89;57.26
59873;BME280;50750;51.636;4.948;2023-02-28T13:18:43;103186.24;;;9.90;57.29
59873;BME280;50750;51.636;4.948;2023-02-28T13:21:28;103188.17;;;9.90;57.33
59873;BME280;50750;51.636;4.948;2023-02-28T13:31:25;103176.65;;;9.92;57.34
59873;BME280;50750;51.636;4.948;2023-02-28T13:36:32;103173.14;;;9.93;57.30
59873;BME280;50750;51.636;4.948;2023-02-28T13:39:01;103177.35;;;9.93;57.33
59873;BME280;50750;51.636;4.948;2023-02-28T13:44:22;103175.09;;;9.95;57.24
59873;BME280;50750;51.636;4.948;2023-02-28T13:49:32;103164.41;;;9.96;57.28
59873;BME280;50750;51.636;4.948;2023-02-28T14:06:08;103160.09;;;10.01;57.20
59873;BME280;50750;51.636;4.948;2023-02-28T14:08:37;103154.66;;;10.01;57.19
59873;BME280;50750;51.636;4.948;2023-02-28T14:11:06;103155.19;;;10.01;57.30
59873;BME280;50750;51.636;4.948;2023-02-28T14:16:13;103155.57;;;10.03;57.20
59873;BME280;50750;51.636;4.948;2023-02-28T14:19:30;103156.45;;;10.03;57.26
59873;BME280;50750;51.636;4.948;2023-02-28T14:21:34;103159.23;;;10.04;57.17
59873;BME280;50750;51.636;4.948;2023-02-28T14:32:28;103152.79;;;10.07;57.13
59873;BME280;50750;51.636;4.948;2023-02-28T14:37:39;103154.21;;;10.08;57.25
59873;BME280;50750;51.636;4.948;2023-02-28T14:40:27;103154.56;;;10.08;57.08
59873;BME280;50750;51.636;4.948;2023-02-28T14:43:04;103152.63;;;10.09;57.12
59873;BME280;50750;51.636;4.948;2023-02-28T14:45:35;103148.77;;;10.09;57.13
59873;BME280;50750;51.636;4.948;2023-02-28T14:48:05;103145.29;;;10.10;57.14
59873;BME280;50750;51.636;4.948;2023-02-28T14:50:37;103149.33;;;10.10;56.99
59873;BME280;50750;51.636;4.948;2023-02-28T14:53:09;103150.38;;;10.11;57.00
59873;BME280;50750;51.636;4.948;2023-02-28T14:55:44;103143.38;;;10.11;57.08
59873;BME280;50750;51.636;4.948;2023-02-28T14:58:31;103143.39;;;10.12;57.04
59873;BME280;50750;51.636;4.948;2023-02-28T15:01:01;103143.39;;;10.13;57.11
59873;BME280;50750;51.636;4.948;2023-02-28T15:03:38;103142.86;;;10.13;57.11
59873;BME280;50750;51.636;4.948;2023-02-28T15:06:13;103140.77;;;10.13;57.03
59873;BME280;50750;51.636;4.948;2023-02-28T15:08:40;103143.92;;;10.14;56.98
59873;BME280;50750;51.636;4.948;2023-02-28T15:13:50;103144.63;;;10.15;57.06
59873;BME280;50750;51.636;4.948;2023-02-28T15:16:25;103142.71;;;10.15;57.10
59873;BME280;50750;51.636;4.948;2023-02-28T15:19:05;103140.45;;;10.16;57.18
59873;BME280;50750;51.636;4.948;2023-02-28T15:21:35;103138.35;;;10.16;57.10
59873;BME280;50750;51.636;4.948;2023-02-28T15:24:46;103140.79;;;10.16;57.08
59873;BME280;50750;51.636;4.948;2023-02-28T15:27:15;103142.89;;;10.16;57.06
59873;BME280;50750;51.636;4.948;2023-02-28T15:29:46;103144.64;;;10.17;56.92
59873;BME280;50750;51.636;4.948;2023-02-28T15:32:36;103145.52;;;10.18;57.12
59873;BME280;50750;51.636;4.948;2023-02-28T15:40:40;103147.47;;;10.19;56.17
59873;BME280;50750;51.636;4.948;2023-02-28T15:43:28;103147.12;;;10.19;54.61
59873;BME280;50750;51.636;4.948;2023-02-28T15:48:30;103152.55;;;10.19;55.09
59873;BME280;50750;51.636;4.948;2023-02-28T15:53:32;103144.84;;;10.20;55.62
59873;BME280;50750;51.636;4.948;2023-02-28T15:56:05;103141.34;;;10.20;55.73
59873;BME280;50750;51.636;4.948;2023-02-28T15:58:34;103142.07;;;10.21;55.80
59873;BME280;50750;51.636;4.948;2023-02-28T16:03:57;103144.16;;;10.22;55.99